sensor_id;sensor_type;location;lat;lon;timestamp;P1;durP1;ratioP1;P2;durP2;ratioP2
40284;SDS011;25997;50.214;19.354;2023-02-28T00:01:33;12.27;;;8.82;;
40284;SDS011;25997;50.214;19.354;2023-02-28T00:04:36;12.15;;;7.20;;
40284;SDS011;25997;50.214;19.354;2023-02-28T00:07:40;11.70;;;6.97;;
40284;SDS011;25997;50.214;19.354;2023-02-28T00:10:43;9.10;;;6.40;;
40284;SDS011;25997;50.214;19.354;2023-02-28T00:13:46;7.97;;;5.35;;
40284;SDS011;25997;50.214;19.354;2023-02-28T00:16:48;7.43;;;5.82;;
40284;SDS011;25997;50.214;19.354;2023-02-28T00:19:51;9.05;;;5.93;;
40284;SDS011;25997;50.214;19.354;2023-02-28T00:22:55;9.90;;;6.13;;
40284;SDS011;25997;50.214;19.354;2023-02-28T00:25:57;8.85;;;5.78;;
40284;SDS011;25997;50.214;19.354;2023-02-28T00:29:00;9.85;;;5.63;;
40284;SDS011;25997;50.214;19.354;2023-02-28T00:32:03;8.35;;;5.35;;
40284;SDS011;25997;50.214;19.354;2023-02-28T00:35:07;8.45;;;5.50;;
40284;SDS011;25997;50.214;19.354;2023-02-28T00:38:11;9.32;;;5.53;;
40284;SDS011;25997;50.214;19.354;2023-02-28T00:41:14;8.43;;;5.53;;
40284;SDS011;25997;50.214;19.354;2023-02-28T00:44:17;8.55;;;4.80;;
40284;SDS011;25997;50.214;19.354;2023-02-28T00:47:22;10.75;;;5.78;;
40284;SDS011;25997;50.214;19.354;2023-02-28T00:50:25;14.68;;;5.65;;
40284;SDS011;25997;50.214;19.354;2023-02-28T00:53:33;9.15;;;5.85;;
40284;SDS011;25997;50.214;19.354;2023-02-28T00:56:36;8.00;;;5.45;;
40284;SDS011;25997;50.214;19.354;2023-02-28T00:59:39;7.25;;;4.95;;
40284;SDS011;25997;50.214;19.354;2023-02-28T01:02:43;11.07;;;7.10;;
40284;SDS011;25997;50.214;19.354;2023-02-28T01:05:46;10.40;;;6.90;;
40284;SDS011;25997;50.214;19.354;2023-02-28T01:08:52;13.90;;;8.75;;
40284;SDS011;25997;50.214;19.354;2023-02-28T01:11:57;16.98;;;9.52;;
40284;SDS011;25997;50.214;19.354;2023-02-28T01:14:59;10.25;;;6.78;;
40284;SDS011;25997;50.214;19.354;2023-02-28T01:18:02;7.07;;;5.07;;
40284;SDS011;25997;50.214;19.354;2023-02-28T01:21:06;8.27;;;4.78;;
40284;SDS011;25997;50.214;19.354;2023-02-28T01:24:10;6.85;;;4.60;;
40284;SDS011;25997;50.214;19.354;2023-02-28T01:27:13;19.63;;;11.02;;
40284;SDS011;25997;50.214;19.354;2023-02-28T01:30:16;35.10;;;20.45;;
40284;SDS011;25997;50.214;19.354;2023-02-28T01:33:21;38.63;;;24.63;;
40284;SDS011;25997;50.214;19.354;2023-02-28T01:36:24;56.83;;;27.65;;
40284;SDS011;25997;50.214;19.354;2023-02-28T01:39:28;56.85;;;26.52;;
40284;SDS011;25997;50.214;19.354;2023-02-28T01:42:31;24.92;;;15.85;;
40284;SDS011;25997;50.214;19.354;2023-02-28T01:45:33;20.85;;;13.35;;
40284;SDS011;25997;50.214;19.354;2023-02-28T01:48:38;21.23;;;10.90;;
40284;SDS011;25997;50.214;19.354;2023-02-28T01:51:44;18.48;;;12.95;;
40284;SDS011;25997;50.214;19.354;2023-02-28T01:54:54;14.18;;;11.15;;
40284;SDS011;25997;50.214;19.354;2023-02-28T01:57:59;11.70;;;9.02;;
40284;SDS011;25997;50.214;19.354;2023-02-28T02:01:04;13.85;;;10.60;;
40284;SDS011;25997;50.214;19.354;2023-02-28T02:04:07;15.88;;;11.63;;
40284;SDS011;25997;50.214;19.354;2023-02-28T02:07:10;13.68;;;9.15;;
40284;SDS011;25997;50.214;19.354;2023-02-28T02:10:21;13.77;;;8.95;;
40284;SDS011;25997;50.214;19.354;2023-02-28T02:13:32;14.05;;;8.18;;
40284;SDS011;25997;50.214;19.354;2023-02-28T02:17:00;11.43;;;7.18;;
40284;SDS011;25997;50.214;19.354;2023-02-28T02:20:32;10.25;;;6.68;;
40284;SDS011;25997;50.214;19.354;2023-02-28T02:23:55;8.88;;;6.40;;
40284;SDS011;25997;50.214;19.354;2023-02-28T02:27:17;12.00;;;5.65;;
40284;SDS011;25997;50.214;19.354;2023-02-28T02:30:40;9.20;;;5.35;;
40284;SDS011;25997;50.214;19.354;2023-02-28T02:34:16;5.88;;;4.03;;
40284;SDS011;25997;50.214;19.354;2023-02-28T02:37:34;7.68;;;4.80;;
40284;SDS011;25997;50.214;19.354;2023-02-28T02:40:42;8.60;;;4.83;;
40284;SDS011;25997;50.214;19.354;2023-02-28T02:43:49;8.98;;;5.20;;
40284;SDS011;25997;50.214;19.354;2023-02-28T02:46:55;7.50;;;5.05;;
40284;SDS011;25997;50.214;19.354;2023-02-28T02:50:05;10.18;;;5.20;;
40284;SDS011;25997;50.214;19.354;2023-02-28T02:53:13;8.07;;;5.18;;
40284;SDS011;25997;50.214;19.354;2023-02-28T02:56:20;8.18;;;5.40;;
40284;SDS011;25997;50.214;19.354;2023-02-28T02:59:27;8.43;;;5.20;;
40284;SDS011;25997;50.214;19.354;2023-02-28T03:02:32;9.98;;;5.72;;
40284;SDS011;25997;50.214;19.354;2023-02-28T03:05:39;6.72;;;4.80;;
40284;SDS011;25997;50.214;19.354;2023-02-28T03:11:49;7.72;;;5.20;;
40284;SDS011;25997;50.214;19.354;2023-02-28T03:14:56;9.77;;;5.95;;
40284;SDS011;25997;50.214;19.354;2023-02-28T03:18:10;10.10;;;6.40;;
40284;SDS011;25997;50.214;19.354;2023-02-28T03:21:26;10.07;;;5.90;;
40284;SDS011;25997;50.214;19.354;2023-02-28T03:24:32;8.52;;;5.47;;
40284;SDS011;25997;50.214;19.354;2023-02-28T03:27:45;8.98;;;5.65;;
40284;SDS011;25997;50.214;19.354;2023-02-28T03:30:57;9.07;;;6.28;;
40284;SDS011;25997;50.214;19.354;2023-02-28T03:34:04;8.65;;;6.22;;
40284;SDS011;25997;50.214;19.354;2023-02-28T03:37:12;10.20;;;6.22;;
40284;SDS011;25997;50.214;19.354;2023-02-28T03:40:19;9.27;;;5.95;;
40284;SDS011;25997;50.214;19.354;2023-02-28T03:43:26;9.82;;;6.07;;
40284;SDS011;25997;50.214;19.354;2023-02-28T03:46:33;10.30;;;7.25;;
40284;SDS011;25997;50.214;19.354;2023-02-28T03:49:40;13.85;;;8.18;;
40284;SDS011;25997;50.214;19.354;2023-02-28T03:52:51;11.37;;;7.27;;
40284;SDS011;25997;50.214;19.354;2023-02-28T03:56:02;12.73;;;9.38;;
40284;SDS011;25997;50.214;19.354;2023-02-28T03:59:10;11.40;;;7.63;;
40284;SDS011;25997;50.214;19.354;2023-02-28T04:02:17;12.52;;;7.93;;
40284;SDS011;25997;50.214;19.354;2023-02-28T04:05:20;11.43;;;8.05;;
40284;SDS011;25997;50.214;19.354;2023-02-28T04:08:24;11.25;;;7.40;;
40284;SDS011;25997;50.214;19.354;2023-02-28T04:11:27;12.85;;;7.90;;
40284;SDS011;25997;50.214;19.354;2023-02-28T04:14:35;15.90;;;9.02;;
40284;SDS011;25997;50.214;19.354;2023-02-28T04:17:37;13.75;;;9.27;;
40284;SDS011;25997;50.214;19.354;2023-02-28T04:20:40;13.55;;;9.75;;
40284;SDS011;25997;50.214;19.354;2023-02-28T04:23:44;16.95;;;10.85;;
40284;SDS011;25997;50.214;19.354;2023-02-28T04:26:46;21.35;;;12.52;;
40284;SDS011;25997;50.214;19.354;2023-02-28T04:29:50;18.65;;;13.10;;
40284;SDS011;25997;50.214;19.354;2023-02-28T04:32:53;23.40;;;14.95;;
40284;SDS011;25997;50.214;19.354;2023-02-28T04:35:59;23.58;;;13.90;;
40284;SDS011;25997;50.214;19.354;2023-02-28T04:39:04;20.13;;;13.60;;
40284;SDS011;25997;50.214;19.354;2023-02-28T04:42:07;19.80;;;12.15;;
40284;SDS011;25997;50.214;19.354;2023-02-28T04:45:10;17.88;;;11.70;;
40284;SDS011;25997;50.214;19.354;2023-02-28T04:48:13;19.60;;;12.13;;
40284;SDS011;25997;50.214;19.354;2023-02-28T04:51:17;16.33;;;10.77;;
40284;SDS011;25997;50.214;19.354;2023-02-28T04:54:23;19.40;;;12.13;;
40284;SDS011;25997;50.214;19.354;2023-02-28T04:57:26;19.25;;;13.38;;
40284;SDS011;25997;50.214;19.354;2023-02-28T05:00:31;17.52;;;11.15;;
40284;SDS011;25997;50.214;19.354;2023-02-28T05:03:34;15.65;;;9.82;;
40284;SDS011;25997;50.214;19.354;2023-02-28T05:06:36;71.15;;;46.50;;
40284;SDS011;25997;50.214;19.354;2023-02-28T05:09:40;30.25;;;22.88;;
40284;SDS011;25997;50.214;19.354;2023-02-28T05:12:42;36.78;;;24.23;;
40284;SDS011;25997;50.214;19.354;2023-02-28T05:15:45;28.15;;;18.98;;
40284;SDS011;25997;50.214;19.354;2023-02-28T05:18:47;22.65;;;16.35;;
40284;SDS011;25997;50.214;19.354;2023-02-28T05:21:51;22.90;;;14.02;;
40284;SDS011;25997;50.214;19.354;2023-02-28T05:24:56;17.67;;;11.32;;
40284;SDS011;25997;50.214;19.354;2023-02-28T05:27:58;19.60;;;11.73;;
40284;SDS011;25997;50.214;19.354;2023-02-28T05:31:01;27.23;;;16.55;;
40284;SDS011;25997;50.214;19.354;2023-02-28T05:34:03;40.95;;;25.13;;
40284;SDS011;25997;50.214;19.354;2023-02-28T05:37:06;38.15;;;25.02;;
40284;SDS011;25997;50.214;19.354;2023-02-28T05:40:15;30.55;;;22.33;;
40284;SDS011;25997;50.214;19.354;2023-02-28T05:43:18;24.63;;;18.17;;
40284;SDS011;25997;50.214;19.354;2023-02-28T05:46:20;22.92;;;16.55;;
40284;SDS011;25997;50.214;19.354;2023-02-28T05:49:23;26.80;;;18.48;;
40284;SDS011;25997;50.214;19.354;2023-02-28T05:52:25;35.78;;;25.00;;
40284;SDS011;25997;50.214;19.354;2023-02-28T05:55:29;23.08;;;14.98;;
40284;SDS011;25997;50.214;19.354;2023-02-28T05:58:32;21.75;;;14.73;;
40284;SDS011;25997;50.214;19.354;2023-02-28T06:01:36;24.20;;;15.13;;
40284;SDS011;25997;50.214;19.354;2023-02-28T06:04:39;18.52;;;12.77;;
40284;SDS011;25997;50.214;19.354;2023-02-28T06:07:42;18.17;;;11.82;;
40284;SDS011;25997;50.214;19.354;2023-02-28T06:10:47;17.15;;;12.07;;
40284;SDS011;25997;50.214;19.354;2023-02-28T06:13:49;17.33;;;11.52;;
40284;SDS011;25997;50.214;19.354;2023-02-28T06:16:54;17.08;;;11.25;;
40284;SDS011;25997;50.214;19.354;2023-02-28T06:19:57;17.23;;;10.85;;
40284;SDS011;25997;50.214;19.354;2023-02-28T06:22:59;21.00;;;12.40;;
40284;SDS011;25997;50.214;19.354;2023-02-28T06:26:04;21.40;;;13.23;;
40284;SDS011;25997;50.214;19.354;2023-02-28T06:29:07;34.95;;;24.52;;
40284;SDS011;25997;50.214;19.354;2023-02-28T06:32:09;50.53;;;32.42;;
40284;SDS011;25997;50.214;19.354;2023-02-28T06:35:12;43.05;;;30.77;;
40284;SDS011;25997;50.214;19.354;2023-02-28T06:38:14;30.77;;;24.45;;
40284;SDS011;25997;50.214;19.354;2023-02-28T06:41:18;30.15;;;23.27;;
40284;SDS011;25997;50.214;19.354;2023-02-28T06:44:21;34.97;;;28.25;;
40284;SDS011;25997;50.214;19.354;2023-02-28T06:47:23;40.60;;;31.17;;
40284;SDS011;25997;50.214;19.354;2023-02-28T06:50:26;46.08;;;37.65;;
40284;SDS011;25997;50.214;19.354;2023-02-28T06:53:30;42.40;;;32.30;;
40284;SDS011;25997;50.214;19.354;2023-02-28T06:56:34;33.65;;;27.75;;
40284;SDS011;25997;50.214;19.354;2023-02-28T06:59:37;33.97;;;22.40;;
40284;SDS011;25997;50.214;19.354;2023-02-28T07:02:39;31.90;;;20.50;;
40284;SDS011;25997;50.214;19.354;2023-02-28T07:05:42;33.20;;;21.67;;
40284;SDS011;25997;50.214;19.354;2023-02-28T07:08:44;35.65;;;21.92;;
40284;SDS011;25997;50.214;19.354;2023-02-28T07:11:48;28.65;;;19.20;;
40284;SDS011;25997;50.214;19.354;2023-02-28T07:14:51;25.92;;;17.90;;
40284;SDS011;25997;50.214;19.354;2023-02-28T07:17:55;30.05;;;19.95;;
40284;SDS011;25997;50.214;19.354;2023-02-28T07:20:58;33.30;;;20.73;;
40284;SDS011;25997;50.214;19.354;2023-02-28T07:24:03;31.00;;;21.10;;
40284;SDS011;25997;50.214;19.354;2023-02-28T07:27:07;29.27;;;20.33;;
40284;SDS011;25997;50.214;19.354;2023-02-28T07:30:10;29.83;;;19.20;;
40284;SDS011;25997;50.214;19.354;2023-02-28T07:33:14;29.02;;;19.40;;
40284;SDS011;25997;50.214;19.354;2023-02-28T07:36:17;28.35;;;19.67;;
40284;SDS011;25997;50.214;19.354;2023-02-28T07:39:20;30.88;;;20.45;;
40284;SDS011;25997;50.214;19.354;2023-02-28T07:42:25;29.90;;;20.00;;
40284;SDS011;25997;50.214;19.354;2023-02-28T07:45:27;29.02;;;19.85;;
40284;SDS011;25997;50.214;19.354;2023-02-28T07:48:32;28.30;;;19.88;;
40284;SDS011;25997;50.214;19.354;2023-02-28T07:51:35;28.45;;;20.45;;
40284;SDS011;25997;50.214;19.354;2023-02-28T07:54:37;25.73;;;20.02;;
40284;SDS011;25997;50.214;19.354;2023-02-28T07:57:41;25.02;;;17.95;;
40284;SDS011;25997;50.214;19.354;2023-02-28T08:00:44;25.52;;;18.25;;
40284;SDS011;25997;50.214;19.354;2023-02-28T08:03:46;26.42;;;16.77;;
40284;SDS011;25997;50.214;19.354;2023-02-28T08:06:49;24.10;;;16.67;;
40284;SDS011;25997;50.214;19.354;2023-02-28T08:09:52;22.42;;;15.15;;
40284;SDS011;25997;50.214;19.354;2023-02-28T08:12:56;18.20;;;13.38;;
40284;SDS011;25997;50.214;19.354;2023-02-28T08:16:00;14.13;;;10.95;;
40284;SDS011;25997;50.214;19.354;2023-02-28T08:19:04;16.35;;;12.95;;
40284;SDS011;25997;50.214;19.354;2023-02-28T08:22:07;22.98;;;14.73;;
40284;SDS011;25997;50.214;19.354;2023-02-28T08:25:09;22.50;;;14.48;;
40284;SDS011;25997;50.214;19.354;2023-02-28T08:28:13;20.55;;;13.77;;
40284;SDS011;25997;50.214;19.354;2023-02-28T08:31:16;21.20;;;14.48;;
40284;SDS011;25997;50.214;19.354;2023-02-28T08:34:19;17.92;;;13.25;;
40284;SDS011;25997;50.214;19.354;2023-02-28T08:37:22;20.52;;;14.38;;
40284;SDS011;25997;50.214;19.354;2023-02-28T08:40:25;23.58;;;16.00;;
40284;SDS011;25997;50.214;19.354;2023-02-28T08:43:29;17.80;;;12.63;;
40284;SDS011;25997;50.214;19.354;2023-02-28T08:46:31;18.60;;;13.05;;
40284;SDS011;25997;50.214;19.354;2023-02-28T08:49:34;15.85;;;11.02;;
40284;SDS011;25997;50.214;19.354;2023-02-28T08:52:37;15.95;;;12.95;;
40284;SDS011;25997;50.214;19.354;2023-02-28T08:55:39;16.58;;;13.00;;
40284;SDS011;25997;50.214;19.354;2023-02-28T08:58:44;14.60;;;11.65;;
40284;SDS011;25997;50.214;19.354;2023-02-28T09:01:48;16.63;;;12.10;;
40284;SDS011;25997;50.214;19.354;2023-02-28T09:04:50;15.65;;;11.82;;
40284;SDS011;25997;50.214;19.354;2023-02-28T09:07:53;14.95;;;11.98;;
40284;SDS011;25997;50.214;19.354;2023-02-28T09:10:55;16.30;;;11.18;;
40284;SDS011;25997;50.214;19.354;2023-02-28T09:14:00;16.10;;;11.73;;
40284;SDS011;25997;50.214;19.354;2023-02-28T09:17:03;15.43;;;11.68;;
40284;SDS011;25997;50.214;19.354;2023-02-28T09:20:06;17.27;;;12.32;;
40284;SDS011;25997;50.214;19.354;2023-02-28T09:23:11;15.13;;;11.73;;
40284;SDS011;25997;50.214;19.354;2023-02-28T09:26:14;14.55;;;11.63;;
40284;SDS011;25997;50.214;19.354;2023-02-28T09:29:19;14.77;;;11.90;;
40284;SDS011;25997;50.214;19.354;2023-02-28T09:32:22;14.07;;;11.30;;
40284;SDS011;25997;50.214;19.354;2023-02-28T09:35:24;13.05;;;11.30;;
40284;SDS011;25997;50.214;19.354;2023-02-28T09:38:27;18.58;;;12.20;;
40284;SDS011;25997;50.214;19.354;2023-02-28T09:41:31;17.80;;;13.70;;
40284;SDS011;25997;50.214;19.354;2023-02-28T09:44:49;15.93;;;13.63;;
40284;SDS011;25997;50.214;19.354;2023-02-28T09:47:54;17.58;;;12.65;;
40284;SDS011;25997;50.214;19.354;2023-02-28T09:51:02;18.20;;;13.07;;
40284;SDS011;25997;50.214;19.354;2023-02-28T09:54:09;23.67;;;15.02;;
40284;SDS011;25997;50.214;19.354;2023-02-28T09:57:20;20.42;;;14.60;;
40284;SDS011;25997;50.214;19.354;2023-02-28T10:00:36;16.30;;;13.70;;
40284;SDS011;25997;50.214;19.354;2023-02-28T10:03:42;13.50;;;11.02;;
40284;SDS011;25997;50.214;19.354;2023-02-28T10:09:55;17.00;;;11.10;;
40284;SDS011;25997;50.214;19.354;2023-02-28T10:13:04;16.15;;;12.75;;
40284;SDS011;25997;50.214;19.354;2023-02-28T10:16:16;14.45;;;11.70;;
40284;SDS011;25997;50.214;19.354;2023-02-28T10:19:26;15.23;;;11.50;;
40284;SDS011;25997;50.214;19.354;2023-02-28T10:22:34;17.75;;;12.88;;
40284;SDS011;25997;50.214;19.354;2023-02-28T10:25:43;13.02;;;11.15;;
40284;SDS011;25997;50.214;19.354;2023-02-28T10:28:49;15.88;;;11.52;;
40284;SDS011;25997;50.214;19.354;2023-02-28T10:31:56;13.82;;;11.48;;
40284;SDS011;25997;50.214;19.354;2023-02-28T10:35:09;32.38;;;23.08;;
40284;SDS011;25997;50.214;19.354;2023-02-28T10:38:17;15.57;;;11.45;;
40284;SDS011;25997;50.214;19.354;2023-02-28T10:41:28;12.05;;;10.77;;
40284;SDS011;25997;50.214;19.354;2023-02-28T10:44:35;18.38;;;16.50;;
40284;SDS011;25997;50.214;19.354;2023-02-28T10:47:40;16.77;;;13.18;;
40284;SDS011;25997;50.214;19.354;2023-02-28T10:50:53;17.67;;;13.27;;
40284;SDS011;25997;50.214;19.354;2023-02-28T10:53:58;16.15;;;11.88;;
40284;SDS011;25997;50.214;19.354;2023-02-28T10:57:08;14.60;;;11.43;;
40284;SDS011;25997;50.214;19.354;2023-02-28T11:00:19;13.30;;;11.95;;
40284;SDS011;25997;50.214;19.354;2023-02-28T11:03:28;12.73;;;10.70;;
40284;SDS011;25997;50.214;19.354;2023-02-28T11:06:33;13.60;;;10.75;;
40284;SDS011;25997;50.214;19.354;2023-02-28T11:09:37;11.27;;;9.82;;
40284;SDS011;25997;50.214;19.354;2023-02-28T11:12:42;12.57;;;10.40;;
40284;SDS011;25997;50.214;19.354;2023-02-28T11:15:49;12.23;;;10.13;;
40284;SDS011;25997;50.214;19.354;2023-02-28T11:18:55;13.18;;;11.57;;
40284;SDS011;25997;50.214;19.354;2023-02-28T11:21:59;12.85;;;10.80;;
40284;SDS011;25997;50.214;19.354;2023-02-28T11:25:06;16.92;;;12.70;;
40284;SDS011;25997;50.214;19.354;2023-02-28T11:28:23;11.95;;;10.25;;
40284;SDS011;25997;50.214;19.354;2023-02-28T11:31:28;12.65;;;10.43;;
40284;SDS011;25997;50.214;19.354;2023-02-28T11:34:34;12.93;;;10.30;;
40284;SDS011;25997;50.214;19.354;2023-02-28T11:37:38;13.20;;;9.40;;
40284;SDS011;25997;50.214;19.354;2023-02-28T11:40:43;11.68;;;9.93;;
40284;SDS011;25997;50.214;19.354;2023-02-28T11:43:55;12.55;;;10.80;;
40284;SDS011;25997;50.214;19.354;2023-02-28T11:47:09;11.13;;;9.55;;
40284;SDS011;25997;50.214;19.354;2023-02-28T11:53:50;12.73;;;10.85;;
40284;SDS011;25997;50.214;19.354;2023-02-28T11:57:09;12.20;;;10.02;;
40284;SDS011;25997;50.214;19.354;2023-02-28T12:00:30;11.88;;;10.25;;
40284;SDS011;25997;50.214;19.354;2023-02-28T12:03:43;13.70;;;10.65;;
40284;SDS011;25997;50.214;19.354;2023-02-28T12:06:55;11.32;;;10.20;;
40284;SDS011;25997;50.214;19.354;2023-02-28T12:10:04;13.90;;;11.43;;
40284;SDS011;25997;50.214;19.354;2023-02-28T12:13:21;13.00;;;11.48;;
40284;SDS011;25997;50.214;19.354;2023-02-28T12:19:57;11.82;;;10.55;;
40284;SDS011;25997;50.214;19.354;2023-02-28T12:23:15;15.93;;;12.90;;
40284;SDS011;25997;50.214;19.354;2023-02-28T12:26:27;11.68;;;10.05;;
40284;SDS011;25997;50.214;19.354;2023-02-28T12:29:40;11.65;;;10.48;;
40284;SDS011;25997;50.214;19.354;2023-02-28T12:32:50;10.23;;;9.20;;
40284;SDS011;25997;50.214;19.354;2023-02-28T12:35:58;11.38;;;9.40;;
40284;SDS011;25997;50.214;19.354;2023-02-28T12:39:07;11.25;;;10.15;;
40284;SDS011;25997;50.214;19.354;2023-02-28T12:42:12;12.38;;;10.88;;
40284;SDS011;25997;50.214;19.354;2023-02-28T12:45:21;10.93;;;9.83;;
40284;SDS011;25997;50.214;19.354;2023-02-28T12:48:27;11.18;;;9.98;;
40284;SDS011;25997;50.214;19.354;2023-02-28T12:51:33;13.35;;;10.45;;
40284;SDS011;25997;50.214;19.354;2023-02-28T12:54:41;14.23;;;11.00;;
40284;SDS011;25997;50.214;19.354;2023-02-28T12:57:53;10.68;;;9.05;;
40284;SDS011;25997;50.214;19.354;2023-02-28T13:08:15;13.05;;;11.73;;
40284;SDS011;25997;50.214;19.354;2023-02-28T13:11:33;12.82;;;11.63;;
40284;SDS011;25997;50.214;19.354;2023-02-28T13:14:42;15.00;;;13.25;;
40284;SDS011;25997;50.214;19.354;2023-02-28T13:17:45;13.63;;;11.55;;
40284;SDS011;25997;50.214;19.354;2023-02-28T13:20:51;12.63;;;10.80;;
40284;SDS011;25997;50.214;19.354;2023-02-28T13:24:00;12.80;;;11.50;;
40284;SDS011;25997;50.214;19.354;2023-02-28T13:34:13;18.00;;;13.90;;
40284;SDS011;25997;50.214;19.354;2023-02-28T13:37:33;13.52;;;10.98;;
40284;SDS011;25997;50.214;19.354;2023-02-28T13:40:38;14.45;;;11.95;;
40284;SDS011;25997;50.214;19.354;2023-02-28T13:44:01;11.77;;;10.60;;
40284;SDS011;25997;50.214;19.354;2023-02-28T13:50:36;11.65;;;10.48;;
40284;SDS011;25997;50.214;19.354;2023-02-28T13:53:45;12.25;;;10.65;;
40284;SDS011;25997;50.214;19.354;2023-02-28T13:57:03;11.93;;;10.63;;
40284;SDS011;25997;50.214;19.354;2023-02-28T14:00:18;12.85;;;10.23;;
40284;SDS011;25997;50.214;19.354;2023-02-28T14:03:34;15.18;;;12.52;;
40284;SDS011;25997;50.214;19.354;2023-02-28T14:06:49;13.00;;;11.13;;
40284;SDS011;25997;50.214;19.354;2023-02-28T14:09:57;13.77;;;11.38;;
40284;SDS011;25997;50.214;19.354;2023-02-28T14:13:14;12.70;;;11.32;;
40284;SDS011;25997;50.214;19.354;2023-02-28T14:16:46;14.32;;;11.82;;
40284;SDS011;25997;50.214;19.354;2023-02-28T14:19:50;13.70;;;11.70;;
40284;SDS011;25997;50.214;19.354;2023-02-28T14:22:54;11.75;;;10.13;;
40284;SDS011;25997;50.214;19.354;2023-02-28T14:26:03;12.95;;;11.57;;
40284;SDS011;25997;50.214;19.354;2023-02-28T14:29:33;12.68;;;11.27;;
40284;SDS011;25997;50.214;19.354;2023-02-28T14:32:47;26.58;;;22.27;;
40284;SDS011;25997;50.214;19.354;2023-02-28T14:36:01;19.80;;;16.42;;
40284;SDS011;25997;50.214;19.354;2023-02-28T14:39:11;20.05;;;17.95;;
40284;SDS011;25997;50.214;19.354;2023-02-28T14:42:28;14.48;;;11.40;;
40284;SDS011;25997;50.214;19.354;2023-02-28T14:45:33;13.00;;;11.50;;
40284;SDS011;25997;50.214;19.354;2023-02-28T14:48:39;12.88;;;10.88;;
40284;SDS011;25997;50.214;19.354;2023-02-28T14:51:41;16.42;;;13.02;;
40284;SDS011;25997;50.214;19.354;2023-02-28T14:54:44;12.85;;;10.90;;
40284;SDS011;25997;50.214;19.354;2023-02-28T14:57:50;17.70;;;14.82;;
40284;SDS011;25997;50.214;19.354;2023-02-28T15:00:55;17.08;;;11.02;;
40284;SDS011;25997;50.214;19.354;2023-02-28T15:04:02;14.80;;;12.65;;
40284;SDS011;25997;50.214;19.354;2023-02-28T15:07:09;13.70;;;11.60;;
40284;SDS011;25997;50.214;19.354;2023-02-28T15:10:17;17.92;;;13.57;;
40284;SDS011;25997;50.214;19.354;2023-02-28T15:13:21;17.10;;;13.37;;
40284;SDS011;25997;50.214;19.354;2023-02-28T15:16:25;14.93;;;12.15;;
40284;SDS011;25997;50.214;19.354;2023-02-28T15:19:35;15.25;;;10.48;;
40284;SDS011;25997;50.214;19.354;2023-02-28T15:22:42;13.48;;;11.82;;
40284;SDS011;25997;50.214;19.354;2023-02-28T15:25:47;15.48;;;12.30;;
40284;SDS011;25997;50.214;19.354;2023-02-28T15:28:54;25.33;;;19.15;;
40284;SDS011;25997;50.214;19.354;2023-02-28T15:32:03;19.85;;;16.20;;
40284;SDS011;25997;50.214;19.354;2023-02-28T15:35:19;18.23;;;12.68;;
40284;SDS011;25997;50.214;19.354;2023-02-28T15:38:28;13.85;;;11.23;;
40284;SDS011;25997;50.214;19.354;2023-02-28T15:41:31;13.60;;;11.35;;
40284;SDS011;25997;50.214;19.354;2023-02-28T15:44:39;16.10;;;11.73;;
40284;SDS011;25997;50.214;19.354;2023-02-28T15:47:44;14.20;;;12.30;;
40284;SDS011;25997;50.214;19.354;2023-02-28T15:50:51;14.27;;;12.43;;
40284;SDS011;25997;50.214;19.354;2023-02-28T15:53:56;14.98;;;12.15;;
40284;SDS011;25997;50.214;19.354;2023-02-28T15:57:02;21.77;;;13.98;;
40284;SDS011;25997;50.214;19.354;2023-02-28T16:00:10;17.88;;;14.80;;
40284;SDS011;25997;50.214;19.354;2023-02-28T16:06:42;22.23;;;15.93;;
40284;SDS011;25997;50.214;19.354;2023-02-28T16:09:45;18.85;;;14.70;;
40284;SDS011;25997;50.214;19.354;2023-02-28T16:12:48;18.23;;;12.70;;
40284;SDS011;25997;50.214;19.354;2023-02-28T16:15:51;15.45;;;13.48;;
40284;SDS011;25997;50.214;19.354;2023-02-28T16:18:54;18.95;;;13.30;;
40284;SDS011;25997;50.214;19.354;2023-02-28T16:21:58;15.98;;;12.10;;
40284;SDS011;25997;50.214;19.354;2023-02-28T16:25:01;13.98;;;11.55;;
40284;SDS011;25997;50.214;19.354;2023-02-28T16:28:05;15.43;;;11.63;;
40284;SDS011;25997;50.214;19.354;2023-02-28T16:31:14;15.18;;;10.88;;
40284;SDS011;25997;50.214;19.354;2023-02-28T16:34:17;13.65;;;10.95;;
40284;SDS011;25997;50.214;19.354;2023-02-28T16:37:21;12.02;;;8.70;;
40284;SDS011;25997;50.214;19.354;2023-02-28T16:40:23;13.30;;;10.13;;
40284;SDS011;25997;50.214;19.354;2023-02-28T16:43:29;13.82;;;10.40;;
40284;SDS011;25997;50.214;19.354;2023-02-28T16:46:33;15.90;;;10.93;;
40284;SDS011;25997;50.214;19.354;2023-02-28T16:49:36;19.80;;;14.80;;
40284;SDS011;25997;50.214;19.354;2023-02-28T16:52:40;14.18;;;11.05;;
40284;SDS011;25997;50.214;19.354;2023-02-28T16:55:43;12.05;;;10.00;;
40284;SDS011;25997;50.214;19.354;2023-02-28T16:58:45;14.38;;;10.40;;
40284;SDS011;25997;50.214;19.354;2023-02-28T17:01:49;13.82;;;10.63;;
40284;SDS011;25997;50.214;19.354;2023-02-28T17:04:52;15.75;;;10.88;;
40284;SDS011;25997;50.214;19.354;2023-02-28T17:07:56;16.08;;;11.50;;
40284;SDS011;25997;50.214;19.354;2023-02-28T17:10:58;13.20;;;9.68;;
40284;SDS011;25997;50.214;19.354;2023-02-28T17:14:02;15.25;;;11.00;;
40284;SDS011;25997;50.214;19.354;2023-02-28T17:17:05;14.88;;;11.55;;
40284;SDS011;25997;50.214;19.354;2023-02-28T17:20:10;15.32;;;11.02;;
40284;SDS011;25997;50.214;19.354;2023-02-28T17:23:16;15.38;;;12.10;;
40284;SDS011;25997;50.214;19.354;2023-02-28T17:26:19;14.25;;;10.95;;
40284;SDS011;25997;50.214;19.354;2023-02-28T17:29:24;15.02;;;10.80;;
40284;SDS011;25997;50.214;19.354;2023-02-28T17:32:27;16.55;;;11.80;;
40284;SDS011;25997;50.214;19.354;2023-02-28T17:35:29;16.33;;;11.15;;
40284;SDS011;25997;50.214;19.354;2023-02-28T17:38:33;19.20;;;10.90;;
40284;SDS011;25997;50.214;19.354;2023-02-28T17:41:36;13.63;;;11.20;;
40284;SDS011;25997;50.214;19.354;2023-02-28T17:44:38;14.77;;;11.52;;
40284;SDS011;25997;50.214;19.354;2023-02-28T17:47:41;14.85;;;11.40;;
40284;SDS011;25997;50.214;19.354;2023-02-28T17:50:47;15.00;;;11.48;;
40284;SDS011;25997;50.214;19.354;2023-02-28T17:53:51;18.23;;;13.13;;
40284;SDS011;25997;50.214;19.354;2023-02-28T17:56:54;18.48;;;12.45;;
40284;SDS011;25997;50.214;19.354;2023-02-28T17:59:56;17.13;;;11.88;;
40284;SDS011;25997;50.214;19.354;2023-02-28T18:02:59;17.08;;;13.00;;
40284;SDS011;25997;50.214;19.354;2023-02-28T18:06:01;21.02;;;12.13;;
40284;SDS011;25997;50.214;19.354;2023-02-28T18:09:06;15.38;;;11.55;;
40284;SDS011;25997;50.214;19.354;2023-02-28T18:12:10;16.88;;;12.13;;
40284;SDS011;25997;50.214;19.354;2023-02-28T18:15:12;16.17;;;12.20;;
40284;SDS011;25997;50.214;19.354;2023-02-28T18:18:15;17.08;;;12.63;;
40284;SDS011;25997;50.214;19.354;2023-02-28T18:21:17;17.52;;;13.43;;
40284;SDS011;25997;50.214;19.354;2023-02-28T18:24:22;16.27;;;13.45;;
40284;SDS011;25997;50.214;19.354;2023-02-28T18:27:25;18.55;;;14.60;;
40284;SDS011;25997;50.214;19.354;2023-02-28T18:30:28;21.27;;;15.15;;
40284;SDS011;25997;50.214;19.354;2023-02-28T18:33:32;25.77;;;19.42;;